Time;durP1;ratioP1;P1;durP2;ratioP2;P2;SDS_P1;SDS_P2;PMS_P1;PMS_P2;Temp;Humidity;BMP_temperature;BMP_pressure;BME280_temperature;BME280_humidity;BME280_pressure;Samples;Min_cycle;Max_cycle;Signal;HPM_P1;HPM_P2
2023/03/18 00:01:38;;;;;;;;;2.00;2.00;;;;;11.47;48.14;99054.25;5096983;27;45891;-79
2023/03/18 00:04:03;;;;;;;;;4.00;4.00;;;;;11.43;48.04;99051.81;5092819;27;45367;-78
2023/03/18 00:06:29;;;;;;;;;2.75;2.75;;;;;11.38;48.16;99064.38;5097190;27;45427;-78
2023/03/18 00:08:56;;;;;;;;;5.00;3.00;;;;;11.33;48.61;99051.38;5091693;27;45488;-79
2023/03/18 00:11:21;;;;;;;;;3.50;3.00;;;;;11.32;49.05;99057.59;5089461;27;46977;-78
2023/03/18 00:13:48;;;;;;;;;3.00;2.00;;;;;11.31;49.31;99053.22;5095646;27;45456;-79
2023/03/18 00:16:14;;;;;;;;;3.50;3.00;;;;;11.27;48.96;99054.28;5096769;27;45330;-78
2023/03/18 00:18:40;;;;;;;;;3.00;3.00;;;;;11.23;49.44;99062.41;5093155;27;45391;-79
2023/03/18 00:21:06;;;;;;;;;2.00;2.00;;;;;11.21;49.40;99057.22;5093904;27;46598;-78
2023/03/18 00:23:33;;;;;;;;;4.75;2.75;;;;;11.18;49.48;99063.47;5096096;27;45361;-79
2023/03/18 00:26:00;;;;;;;;;4.75;3.75;;;;;11.15;49.71;99068.03;5096031;27;45379;-79
2023/03/18 00:28:26;;;;;;;;;4.00;3.00;;;;;11.14;49.73;99061.88;5092898;27;45428;-79
2023/03/18 00:30:53;;;;;;;;;3.00;3.00;;;;;11.12;50.06;99069.00;5097027;27;45642;-79
2023/03/18 00:33:19;;;;;;;;;3.00;3.00;;;;;11.11;49.82;99061.16;5097152;27;45364;-79
2023/03/18 00:35:45;;;;;;;;;0.75;0.00;;;;;11.08;49.57;99061.28;5066458;27;45388;-79
2023/03/18 00:38:19;;;;;;;;;2.75;2.75;;;;;11.03;50.30;99073.81;5078373;27;45595;-79
2023/03/18 00:40:52;;;;;;;;;8.75;5.75;;;;;10.98;50.30;99065.25;5093552;27;46780;-79
2023/03/18 00:43:21;;;;;;;;;2.50;2.50;;;;;10.96;50.20;99062.66;5083833;27;45405;-78
2023/03/18 00:45:49;;;;;;;;;4.00;4.00;;;;;10.93;50.31;99059.28;5083716;27;45439;-78
2023/03/18 00:48:14;;;;;;;;;5.25;4.00;;;;;10.90;50.71;99057.63;5089155;27;45384;-78
2023/03/18 00:50:40;;;;;;;;;4.00;4.00;;;;;10.90;51.06;99055.00;5083806;27;46444;-79
2023/03/18 00:53:05;;;;;;;;;5.25;3.75;;;;;10.87;50.29;99049.88;5089912;27;45358;-79
2023/03/18 00:55:32;;;;;;;;;3.75;3.00;;;;;10.82;50.72;99047.44;5092184;27;45423;-81
2023/03/18 00:57:57;;;;;;;;;3.00;3.00;;;;;10.80;51.02;99044.00;5089398;27;45364;-79
2023/03/18 01:00:25;;;;;;;;;4.25;3.75;;;;;10.77;50.91;99051.19;5087390;27;45479;-78
2023/03/18 01:02:50;;;;;;;;;7.00;3.50;;;;;10.75;51.32;99051.25;5090358;27;45658;-79
2023/03/18 01:05:17;;;;;;;;;4.00;4.00;;;;;10.74;51.57;99046.03;5091247;27;45439;-79
2023/03/18 01:07:42;;;;;;;;;4.75;4.75;;;;;10.71;51.55;99041.75;5085035;27;45462;-79
2023/03/18 01:10:10;;;;;;;;;6.00;4.00;;;;;10.69;51.26;99042.75;5067880;27;48093;-79
2023/03/18 01:12:35;;;;;;;;;3.75;2.50;;;;;10.66;51.52;99033.19;5089947;27;45390;-79
2023/03/18 01:15:01;;;;;;;;;6.25;5.00;;;;;10.63;51.81;99032.44;5091797;27;45695;-79
2023/03/18 01:17:26;;;;;;;;;5.25;2.25;;;;;10.61;51.76;99034.28;5071490;27;45467;-78
2023/03/18 01:19:51;;;;;;;;;4.25;4.25;;;;;10.59;51.95;99036.13;5092570;27;45515;-78
2023/03/18 01:22:17;;;;;;;;;6.00;4.00;;;;;10.58;52.23;99026.50;5092418;27;45507;-79
2023/03/18 01:24:43;;;;;;;;;3.25;3.25;;;;;10.55;52.13;99024.88;5095141;27;45442;-79
2023/03/18 01:27:09;;;;;;;;;3.00;3.00;;;;;10.54;52.79;99011.75;5095431;27;45377;-79
2023/03/18 01:29:35;;;;;;;;;5.50;3.50;;;;;10.48;52.78;99012.84;5090463;27;45577;-79
2023/03/18 01:32:01;;;;;;;;;3.75;3.75;;;;;10.41;52.63;99016.66;5095853;27;45345;-78
2023/03/18 01:34:27;;;;;;;;;4.00;4.00;;;;;10.39;52.61;99008.81;5085943;27;45389;-79
2023/03/18 01:36:54;;;;;;;;;4.75;4.50;;;;;10.36;52.96;99008.97;5095938;27;45267;-79
2023/03/18 01:39:20;;;;;;;;;4.00;4.00;;;;;10.34;53.26;99009.94;5079662;27;45602;-79
2023/03/18 01:41:45;;;;;;;;;5.00;4.00;;;;;10.31;53.26;99010.06;5092008;27;45381;-79
2023/03/18 01:44:13;;;;;;;;;4.00;3.00;;;;;10.28;53.52;98997.00;5096443;27;45425;-79
2023/03/18 01:46:44;;;;;;;;;4.25;4.25;;;;;10.21;53.71;99000.81;5095661;27;45539;-79
2023/03/18 01:49:19;;;;;;;;;7.00;6.00;;;;;10.18;54.01;98995.63;5090553;27;46940;-79
2023/03/18 01:51:51;;;;;;;;;8.75;5.00;;;;;10.12;53.87;98991.47;5093562;27;45406;-80
2023/03/18 01:54:18;;;;;;;;;4.25;3.75;;;;;10.10;53.96;98990.66;5089299;27;45613;-80
2023/03/18 01:56:47;;;;;;;;;4.00;4.00;;;;;10.07;54.12;98994.28;5085517;27;45466;-80
2023/03/18 01:59:14;;;;;;;;;3.50;3.50;;;;;10.05;54.24;98988.19;5077543;27;48287;-80
2023/03/18 02:01:55;;;;;;;;;6.75;5.25;;;;;10.01;55.16;98991.91;5095621;27;45433;-80
2023/03/18 02:04:24;;;;;;;;;6.00;4.00;;;;;9.94;54.42;98989.56;5081965;27;45415;-79
2023/03/18 02:06:49;;;;;;;;;3.00;3.00;;;;;9.92;54.73;98989.63;5094800;27;45467;-79
2023/03/18 02:09:15;;;;;;;;;3.00;3.00;;;;;9.90;54.56;98988.81;5080089;27;46506;-79
2023/03/18 02:11:44;;;;;;;;;5.00;3.00;;;;;9.87;54.77;98986.34;5095192;27;45367;-79
2023/03/18 02:14:13;;;;;;;;;5.50;4.00;;;;;9.86;54.80;98991.66;5074127;27;45354;-79
2023/03/18 02:16:46;;;;;;;;;3.00;3.00;;;;;9.83;55.01;98986.50;5087069;27;45544;-79
2023/03/18 02:19:30;;;;;;;;;2.00;2.00;;;;;9.80;55.16;98977.81;5093353;27;46120;-79
2023/03/18 02:22:08;;;;;;;;;3.50;3.00;;;;;9.79;55.58;98983.13;5089156;27;45425;-79
2023/03/18 02:24:58;;;;;;;;;7.00;4.50;;;;;9.77;55.59;98982.31;5094169;27;45338;-79
2023/03/18 02:27:31;;;;;;;;;4.25;4.00;;;;;9.74;55.85;98982.44;5092157;27;45471;-79
2023/03/18 02:30:01;;;;;;;;;3.25;3.25;;;;;9.67;55.85;98981.84;5093183;27;46479;-79
2023/03/18 02:32:30;;;;;;;;;6.00;4.25;;;;;9.62;56.41;98983.78;5092597;27;45498;-79
2023/03/18 02:35:00;;;;;;;;;4.00;4.00;;;;;9.58;56.56;98986.56;5077060;27;45450;-79
2023/03/18 02:37:25;;;;;;;;;3.00;2.00;;;;;9.52;56.62;98982.44;5093909;27;45487;-79
2023/03/18 02:39:50;;;;;;;;;3.25;3.25;;;;;9.49;56.48;98986.94;5073042;28;47048;-79
2023/03/18 02:42:27;;;;;;;;;7.75;4.25;;;;;9.45;57.11;98987.06;5091063;27;45538;-79
2023/03/18 02:44:53;;;;;;;;;3.00;3.00;;;;;9.41;56.74;98990.72;5088629;27;45494;-79
2023/03/18 02:47:23;;;;;;;;;3.25;3.25;;;;;9.41;56.88;98990.72;5093728;27;45459;-79
2023/03/18 02:49:50;;;;;;;;;3.75;3.75;;;;;9.41;56.68;98992.47;5095296;27;45518;-79
2023/03/18 02:52:15;;;;;;;;;2.00;2.00;;;;;9.40;56.59;98996.88;5094596;27;45472;-79
2023/03/18 02:54:41;;;;;;;;;3.00;3.00;;;;;9.41;57.00;99000.38;5094849;27;45771;-79
2023/03/18 02:57:07;;;;;;;;;4.50;4.50;;;;;9.41;57.15;98990.72;5083131;27;45566;-79
2023/03/18 02:59:33;;;;;;;;;4.50;4.50;;;;;9.41;57.27;98988.06;5075485;27;48199;-79
2023/03/18 03:01:59;;;;;;;;;4.00;4.00;;;;;9.44;57.15;98990.59;5094397;27;45572;-79
2023/03/18 03:04:26;;;;;;;;;3.50;3.50;;;;;9.44;57.38;98987.97;5088308;27;45462;-78
2023/03/18 03:06:53;;;;;;;;;4.00;4.00;;;;;9.46;57.39;98993.19;5094081;27;45486;-79
2023/03/18 03:09:20;;;;;;;;;5.00;4.00;;;;;9.47;57.17;98997.53;5091173;27;46241;-79
2023/03/18 03:11:46;;;;;;;;;6.00;6.00;;;;;9.49;56.88;98992.22;5089265;27;45448;-79
2023/03/18 03:14:13;;;;;;;;;4.50;4.00;;;;;9.50;57.20;98991.28;5089304;27;45459;-79
2023/03/18 03:16:38;;;;;;;;;3.00;3.00;;;;;9.50;57.10;98994.78;5094598;27;45460;-79
2023/03/18 03:19:04;;;;;;;;;5.00;5.00;;;;;9.51;56.90;98998.28;5088159;27;46659;-79
2023/03/18 03:21:32;;;;;;;;;4.50;4.50;;;;;9.51;57.05;98993.88;5094738;27;45545;-79
2023/03/18 03:23:58;;;;;;;;;3.00;3.00;;;;;9.53;57.04;98993.81;5093390;27;45430;-79
2023/03/18 03:26:23;;;;;;;;;5.00;2.50;;;;;9.54;57.15;98999.03;5080217;27;45392;-79
2023/03/18 03:28:49;;;;;;;;;5.00;5.00;;;;;9.57;57.26;99001.50;5091849;27;45914;-79
2023/03/18 03:31:15;;;;;;;;;6.25;4.75;;;;;9.59;57.41;99001.47;5097979;27;45302;-79
2023/03/18 03:33:42;;;;;;;;;3.00;3.00;;;;;9.60;57.42;99003.19;5097802;27;45415;-79
2023/03/18 03:36:14;;;;;;;;;5.00;5.00;;;;;9.62;57.58;99007.47;5097784;27;45532;-79
2023/03/18 03:38:40;;;;;;;;;3.00;3.00;;;;;9.61;57.62;99011.00;5097652;27;46311;-79
2023/03/18 03:41:09;;;;;;;;;6.00;5.00;;;;;9.59;57.35;99009.34;5097400;27;45383;-79
2023/03/18 03:43:35;;;;;;;;;6.00;4.00;;;;;9.60;57.61;99000.53;5097360;27;45562;-79
2023/03/18 03:46:01;;;;;;;;;4.00;3.00;;;;;9.60;57.79;99011.06;5097915;27;45494;-79
2023/03/18 03:48:26;;;;;;;;;3.50;3.50;;;;;9.58;57.58;99008.50;5086872;27;46190;-79
2023/03/18 03:50:52;;;;;;;;;3.00;3.00;;;;;9.57;58.12;99012.03;5095553;27;45427;-79
2023/03/18 03:53:19;;;;;;;;;2.00;2.00;;;;;9.54;58.10;99012.19;5097656;27;45379;-80
2023/03/18 03:55:44;;;;;;;;;5.00;5.00;;;;;9.52;58.37;99015.78;5090927;27;45627;-79
2023/03/18 03:58:09;;;;;;;;;4.00;4.00;;;;;9.49;59.32;99016.75;5093563;27;46506;-79
2023/03/18 04:00:35;;;;;;;;;6.75;6.75;;;;;9.45;59.37;99007.25;5087623;27;45370;-79
2023/03/18 04:03:01;;;;;;;;;6.00;4.00;;;;;9.39;58.80;99012.72;5092880;27;45462;-79
2023/03/18 04:05:26;;;;;;;;;5.50;5.00;;;;;9.33;58.35;99013.81;5092678;27;45554;-79
2023/03/18 04:07:53;;;;;;;;;5.75;5.00;;;;;9.27;58.50;99024.56;5096920;27;45750;-79
2023/03/18 04:10:20;;;;;;;;;4.75;4.75;;;;;9.23;58.73;99028.22;5078844;27;45529;-79
2023/03/18 04:12:46;;;;;;;;;10.75;5.00;;;;;9.19;59.01;99017.88;5084001;27;45518;-79
2023/03/18 04:15:14;;;;;;;;;6.00;5.00;;;;;9.14;58.97;99017.19;5090091;27;45532;-79
2023/03/18 04:17:40;;;;;;;;;5.00;3.00;;;;;9.08;59.31;99005.97;5096656;27;45501;-79
2023/03/18 04:20:06;;;;;;;;;6.00;4.00;;;;;9.06;59.01;99015.66;5096732;27;45476;-79
2023/03/18 04:22:32;;;;;;;;;6.50;6.50;;;;;9.07;59.39;99024.41;5095859;27;45496;-79
2023/03/18 04:24:59;;;;;;;;;9.25;5.25;;;;;9.07;58.83;99014.75;5090845;27;45491;-78
2023/03/18 04:27:25;;;;;;;;;6.50;5.25;;;;;9.07;60.28;99016.53;5097073;27;45537;-79
2023/03/18 04:29:51;;;;;;;;;5.50;4.50;;;;;9.07;60.83;99024.41;5094514;27;45469;-79
2023/03/18 04:32:16;;;;;;;;;8.00;6.00;;;;;9.04;61.10;99024.56;5090635;27;45471;-79
2023/03/18 04:34:42;;;;;;;;;5.00;4.00;;;;;8.99;60.50;99029.97;5092099;27;45859;-79
2023/03/18 04:37:08;;;;;;;;;6.00;6.00;;;;;8.97;60.52;99021.28;5096650;27;46150;-79
2023/03/18 04:39:33;;;;;;;;;5.00;5.00;;;;;8.97;60.68;99020.41;5094740;27;45306;-79
2023/03/18 04:41:59;;;;;;;;;10.67;6.00;;;;;8.97;60.52;99020.41;5097151;27;45397;-79
2023/03/18 04:44:24;;;;;;;;;12.33;12.00;;;;;8.97;60.55;99015.16;5081949;27;45588;-79
2023/03/18 04:46:52;;;;;;;;;7.25;6.25;;;;;8.91;61.58;99016.22;5080840;27;46603;-80
2023/03/18 04:49:18;;;;;;;;;7.50;6.00;;;;;8.86;61.63;99022.56;5089000;27;45474;-79
2023/03/18 04:51:44;;;;;;;;;4.00;2.50;;;;;8.82;61.22;99016.53;5096228;27;45387;-79
2023/03/18 04:54:11;;;;;;;;;4.33;4.00;;;;;8.73;61.02;99020.34;5089076;27;45376;-79
2023/03/18 04:56:37;;;;;;;;;7.50;5.00;;;;;8.65;61.14;99016.28;5088120;27;45883;-79
2023/03/18 04:59:03;;;;;;;;;9.00;7.33;;;;;8.60;62.09;99024.28;5077893;27;46206;-79
2023/03/18 05:01:28;;;;;;;;;6.50;4.50;;;;;8.53;61.53;99019.31;5092395;27;45321;-79
2023/03/18 05:03:54;;;;;;;;;7.00;6.00;;;;;8.45;62.05;99022.19;5095971;27;45590;-79
2023/03/18 05:06:25;;;;;;;;;5.00;4.25;;;;;8.40;62.94;99018.84;5092562;27;46340;-79
2023/03/18 05:08:52;;;;;;;;;7.25;5.00;;;;;8.35;63.12;99021.66;5067910;27;45571;-79
2023/03/18 05:11:19;;;;;;;;;5.50;4.00;;;;;8.30;62.62;99026.13;5088603;27;45400;-79
2023/03/18 05:13:45;;;;;;;;;4.00;3.50;;;;;8.28;62.61;99027.09;5088468;27;45545;-80
2023/03/18 05:16:10;;;;;;;;;5.00;3.00;;;;;8.25;62.10;99032.44;5082574;27;46091;-79
2023/03/18 05:18:36;;;;;;;;;6.33;4.33;;;;;8.22;62.39;99035.16;5096187;27;45451;-79
2023/03/18 05:21:02;;;;;;;;;5.00;4.33;;;;;8.18;62.46;99026.53;5096178;27;45412;-79
2023/03/18 05:23:28;;;;;;;;;3.00;3.00;;;;;8.16;62.59;99028.34;5088793;27;45392;-79
2023/03/18 05:25:54;;;;;;;;;4.75;4.75;;;;;8.16;62.71;99028.34;5093251;27;46214;-80
2023/03/18 05:28:20;;;;;;;;;4.00;3.00;;;;;8.15;62.69;99023.16;5091171;27;45684;-79
2023/03/18 05:30:46;;;;;;;;;5.33;4.00;;;;;8.15;62.32;99034.50;5092015;27;45454;-79
2023/03/18 05:33:12;;;;;;;;;6.67;5.67;;;;;8.15;62.72;99023.16;5077966;27;45406;-79
2023/03/18 05:35:38;;;;;;;;;5.00;5.00;;;;;8.16;63.02;99028.34;5093344;27;46186;-79
2023/03/18 05:38:03;;;;;;;;;4.00;4.00;;;;;8.15;62.90;99031.03;5088505;27;45314;-79
2023/03/18 05:40:28;;;;;;;;;8.67;6.33;;;;;8.16;62.62;99036.25;5087908;27;45418;-79
2023/03/18 05:42:54;;;;;;;;;7.00;6.33;;;;;8.17;63.24;99031.84;5087239;27;45514;-78
2023/03/18 05:45:19;;;;;;;;;6.33;5.00;;;;;8.19;63.08;99035.28;5093914;27;46241;-79
2023/03/18 05:47:45;;;;;;;;;4.00;4.00;;;;;8.21;63.46;99034.28;5095925;27;45356;-79
2023/03/18 05:50:12;;;;;;;;;6.33;6.33;;;;;8.22;64.01;99037.78;5076934;27;45382;-79
2023/03/18 05:52:37;;;;;;;;;5.00;4.00;;;;;8.22;64.27;99043.91;5085877;27;45462;-79
2023/03/18 05:55:03;;;;;;;;;7.33;5.33;;;;;8.24;64.23;99044.72;5091112;27;46355;-78
2023/03/18 05:57:29;;;;;;;;;9.00;7.67;;;;;8.25;64.32;99045.56;5096058;27;45500;-80
2023/03/18 05:59:54;;;;;;;;;6.25;5.00;;;;;8.27;64.19;99043.75;5084994;27;45551;-79
2023/03/18 06:02:20;;;;;;;;;4.33;4.33;;;;;8.29;63.80;99045.44;5095009;27;45498;-79
2023/03/18 06:04:45;;;;;;;;;5.00;5.00;;;;;8.31;63.81;99045.38;5088813;27;45558;-79
2023/03/18 06:07:11;;;;;;;;;6.00;5.00;;;;;8.34;63.79;99040.06;5092711;27;45389;-79
2023/03/18 06:09:36;;;;;;;;;7.67;4.67;;;;;8.35;63.64;99047.91;5075298;27;45406;-79
2023/03/18 06:12:02;;;;;;;;;6.33;6.33;;;;;8.37;63.57;99042.59;5090745;27;45474;-79
2023/03/18 06:14:28;;;;;;;;;6.00;5.00;;;;;8.40;63.72;99045.97;5094720;27;45985;-78
2023/03/18 06:16:56;;;;;;;;;11.67;9.67;;;;;8.43;63.77;99047.63;5091784;27;45421;-79
2023/03/18 06:19:22;;;;;;;;;12.00;10.00;;;;;8.44;63.68;99057.25;5095277;27;45344;-78
2023/03/18 06:21:48;;;;;;;;;8.00;6.00;;;;;8.50;63.79;99062.31;5086919;27;45455;-79
2023/03/18 06:24:14;;;;;;;;;8.00;8.00;;;;;8.54;63.69;99061.31;5091652;27;46597;-79
2023/03/18 06:26:40;;;;;;;;;8.33;8.00;;;;;8.58;63.31;99062.91;5094604;27;45376;-79
2023/03/18 06:29:05;;;;;;;;;9.00;7.67;;;;;8.59;63.58;99062.00;5085943;27;45461;-79
2023/03/18 06:31:31;;;;;;;;;10.33;6.00;;;;;8.60;63.49;99063.72;5094951;27;45444;-79
2023/03/18 06:33:57;;;;;;;;;12.00;8.00;;;;;8.61;63.25;99068.06;5094604;27;46627;-79
2023/03/18 06:36:22;;;;;;;;;7.67;7.67;;;;;8.64;63.44;99060.06;5089708;27;45437;-79
2023/03/18 06:38:48;;;;;;;;;10.67;8.33;;;;;8.66;62.90;99060.91;5090805;27;45369;-80
2023/03/18 06:41:13;;;;;;;;;9.33;7.67;;;;;8.69;63.24;99068.69;5089711;27;45471;-80
2023/03/18 06:43:39;;;;;;;;;6.67;6.00;;;;;8.72;63.24;99060.66;5094393;27;46084;-79
2023/03/18 06:46:04;;;;;;;;;6.00;5.00;;;;;8.77;62.93;99070.19;5081856;27;45392;-79
2023/03/18 06:48:31;;;;;;;;;6.25;6.25;;;;;8.78;62.74;99070.13;5074826;27;45509;-80
2023/03/18 06:50:57;;;;;;;;;8.75;7.00;;;;;8.79;62.99;99073.63;5087052;27;45468;-79
2023/03/18 06:53:22;;;;;;;;;8.00;5.33;;;;;8.79;62.76;99065.72;5074376;27;47992;-79
2023/03/18 06:55:48;;;;;;;;;10.25;8.25;;;;;8.83;62.82;99062.09;5094399;27;45554;-79
2023/03/18 06:58:14;;;;;;;;;9.00;6.75;;;;;8.89;62.34;99060.09;5097396;27;45405;-80
2023/03/18 07:00:40;;;;;;;;;9.00;6.00;;;;;8.96;62.41;99072.13;5086354;27;45594;-79
2023/03/18 07:03:06;;;;;;;;;8.67;7.67;;;;;9.02;62.33;99068.44;5095279;27;45648;-79
2023/03/18 07:05:31;;;;;;;;;5.33;5.33;;;;;9.05;62.04;99061.28;5072565;27;45547;-80
2023/03/18 07:07:57;;;;;;;;;7.33;6.00;;;;;9.11;61.58;99060.22;5095536;27;45492;-79
2023/03/18 07:10:26;;;;;;;;;9.00;9.00;;;;;9.17;61.56;99065.28;5090357;27;45378;-79
2023/03/18 07:12:53;;;;;;;;;8.67;7.67;;;;;9.24;61.43;99064.13;5093851;27;45640;-79
2023/03/18 07:15:22;;;;;;;;;6.00;6.00;;;;;9.33;61.23;99055.91;5091732;27;45597;-79
2023/03/18 07:17:49;;;;;;;;;10.00;9.00;;;;;9.41;61.15;99059.13;5098015;27;45278;-79
2023/03/18 07:20:16;;;;;;;;;9.75;6.50;;;;;9.49;60.33;99058.00;5092584;27;45408;-79
2023/03/18 07:22:44;;;;;;;;;8.00;8.00;;;;;9.55;60.10;99055.16;5086823;27;46490;-79
2023/03/18 07:25:10;;;;;;;;;5.00;5.00;;;;;9.61;59.90;99047.88;5079444;27;45499;-79
2023/03/18 07:27:35;;;;;;;;;7.00;6.00;;;;;9.69;59.83;99058.13;5094754;27;45428;-79
2023/03/18 07:30:01;;;;;;;;;8.67;7.33;;;;;9.74;59.15;99057.00;5084631;27;45549;-80
2023/03/18 07:32:28;;;;;;;;;8.75;7.50;;;;;9.78;59.11;99060.38;5097263;27;46216;-80
2023/03/18 07:34:54;;;;;;;;;5.50;4.00;;;;;9.84;59.03;99057.53;5083173;27;45473;-79
2023/03/18 07:37:19;;;;;;;;;7.25;7.25;;;;;9.90;58.78;99059.91;5077760;27;45487;-80
2023/03/18 07:39:45;;;;;;;;;7.50;7.50;;;;;9.95;58.90;99054.47;5089200;27;45572;-80
2023/03/18 07:42:11;;;;;;;;;10.00;7.00;;;;;10.00;58.61;99052.53;5094922;27;45488;-80
2023/03/18 07:44:36;;;;;;;;;6.75;6.75;;;;;10.06;58.31;99047.88;5096720;27;45469;-80
2023/03/18 07:47:03;;;;;;;;;6.00;6.00;;;;;10.15;58.29;99057.19;5097566;27;45448;-80
2023/03/18 07:49:29;;;;;;;;;9.75;9.75;;;;;10.24;58.18;99056.00;5091555;27;45611;-80
2023/03/18 07:51:55;;;;;;;;;9.67;8.33;;;;;10.35;57.99;99051.19;5093944;27;46070;-80
2023/03/18 07:54:22;;;;;;;;;8.50;7.50;;;;;10.43;57.68;99051.72;5096953;27;45419;-78
2023/03/18 07:56:48;;;;;;;;;7.00;7.00;;;;;10.53;57.87;99055.72;5094066;27;45420;-60
2023/03/18 07:59:14;;;;;;;;;7.00;6.00;;;;;10.66;57.52;99048.13;5091967;27;45368;-63
2023/03/18 08:01:40;;;;;;;;;5.00;5.00;;;;;10.79;57.14;99052.84;5095578;27;45423;-76
2023/03/18 08:04:05;;;;;;;;;7.00;7.00;;;;;10.89;56.94;99057.75;5095191;27;45438;-77
2023/03/18 08:06:31;;;;;;;;;10.50;9.50;;;;;10.95;56.64;99047.75;5090508;27;45523;-77
2023/03/18 08:08:57;;;;;;;;;9.00;7.25;;;;;10.97;56.45;99045.91;5076367;27;45439;-77
2023/03/18 08:11:23;;;;;;;;;8.25;6.75;;;;;11.01;56.42;99050.16;5093835;27;45510;-77
2023/03/18 08:13:48;;;;;;;;;11.50;8.50;;;;;11.05;56.35;99046.47;5080490;27;45413;-78
2023/03/18 08:16:14;;;;;;;;;8.50;7.75;;;;;11.10;55.87;99059.44;5085547;27;45413;-79
2023/03/18 08:18:40;;;;;;;;;9.75;6.25;;;;;11.15;56.07;99050.41;5086676;27;45591;-78
2023/03/18 08:21:06;;;;;;;;;8.25;7.75;;;;;11.22;56.02;99050.16;5092252;27;46193;-78
2023/03/18 08:23:32;;;;;;;;;11.00;9.25;;;;;11.27;55.03;99041.09;5087702;27;45464;-78
2023/03/18 08:25:58;;;;;;;;;15.75;10.00;;;;;11.32;55.10;99046.16;5096275;27;45385;-79
2023/03/18 08:28:24;;;;;;;;;10.25;9.75;;;;;11.39;54.80;99045.84;5096731;27;45333;-78
2023/03/18 08:30:58;;;;;;;;;10.00;9.00;;;;;11.42;54.64;99047.47;5094610;27;45466;-78
2023/03/18 08:33:24;;;;;;;;;11.25;7.75;;;;;11.44;54.47;99046.47;5067587;27;45373;-82
2023/03/18 08:35:50;;;;;;;;;11.25;11.25;;;;;11.48;54.74;99047.19;5093836;27;45422;-78
2023/03/18 08:38:17;;;;;;;;;12.50;11.75;;;;;11.57;54.27;99046.75;5096590;27;45313;-79
2023/03/18 08:40:42;;;;;;;;;13.75;12.00;;;;;11.64;54.54;99044.72;5096278;27;45731;-81
2023/03/18 08:43:08;;;;;;;;;10.00;10.00;;;;;11.68;54.18;99041.88;5088684;27;45385;-79
2023/03/18 08:45:35;;;;;;;;;13.25;10.50;;;;;11.70;53.65;99039.16;5071160;27;45380;-74
2023/03/18 08:48:01;;;;;;;;;10.50;10.50;;;;;11.75;53.47;99042.44;5086497;27;45701;-74
2023/03/18 08:50:28;;;;;;;;;15.25;13.00;;;;;11.77;53.85;99044.13;5092594;27;46161;-75
2023/03/18 08:52:58;;;;;;;;;18.25;15.50;;;;;11.82;54.12;99036.00;5094889;27;45437;-75
2023/03/18 08:55:33;;;;;;;;;15.25;13.00;;;;;11.85;53.87;99042.00;5094725;27;45543;-75
2023/03/18 08:58:00;;;;;;;;;14.50;11.75;;;;;11.93;53.65;99038.13;5093150;27;45558;-75
2023/03/18 09:00:27;;;;;;;;;20.00;15.75;;;;;12.00;53.38;99031.63;5086348;27;45579;-74
2023/03/18 09:02:53;;;;;;;;;9.25;9.25;;;;;12.01;52.47;99030.69;5094810;27;45394;-73
2023/03/18 09:05:19;;;;;;;;;14.00;13.25;;;;;12.05;53.11;99035.78;5086723;27;45518;-73
2023/03/18 09:07:45;;;;;;;;;15.75;15.75;;;;;12.09;52.40;99032.03;5093117;27;45605;-73
2023/03/18 09:10:13;;;;;;;;;17.25;15.25;;;;;12.12;52.01;99031.91;5094708;27;46455;-73
2023/03/18 09:12:42;;;;;;;;;19.00;16.67;;;;;12.15;51.80;99025.59;5094272;27;45506;-74
2023/03/18 09:15:09;;;;;;;;;17.50;14.50;;;;;12.16;52.04;99032.59;5074552;27;45475;-67
2023/03/18 09:17:39;;;;;;;;;16.00;15.67;;;;;12.13;52.07;99041.53;5091769;27;45538;-66
2023/03/18 09:20:08;;;;;;;;;16.25;14.50;;;;;12.14;52.49;99024.75;5091269;27;45357;-65
2023/03/18 09:22:34;;;;;;;;;19.00;18.00;;;;;12.19;52.08;99022.75;5090079;27;45382;-66
2023/03/18 09:25:00;;;;;;;;;14.75;14.00;;;;;12.26;51.98;99020.66;5089837;27;45395;-65
2023/03/18 09:27:26;;;;;;;;;24.67;16.33;;;;;12.33;51.51;99016.78;5094467;27;45327;-65
2023/03/18 09:29:51;;;;;;;;;19.00;17.33;;;;;12.36;52.03;99010.50;5088133;27;45326;-65
2023/03/18 09:32:17;;;;;;;;;21.25;13.75;;;;;12.38;51.62;99006.00;5094218;27;45453;-65
2023/03/18 09:34:43;;;;;;;;;20.75;17.75;;;;;12.42;52.02;99023.41;5088806;27;45294;-65
2023/03/18 09:37:15;;;;;;;;;20.33;17.00;;;;;12.46;50.46;99014.41;5093551;27;45471;-65
2023/03/18 09:39:40;;;;;;;;;22.33;18.00;;;;;12.50;50.91;99018.59;5088575;27;45671;-65
2023/03/18 09:42:51;;;;;;;;;22.67;19.00;;;;;12.50;50.43;99019.47;5090249;27;45352;-65
2023/03/18 09:45:37;;;;;;;;;18.00;17.00;;;;;12.53;51.02;99006.09;5064779;27;45496;-65
2023/03/18 09:48:15;;;;;;;;;16.67;14.67;;;;;12.58;50.78;99011.13;5086618;27;45423;-65
2023/03/18 09:51:13;;;;;;;;;24.00;18.33;;;;;12.65;50.38;99009.06;5074433;27;47982;-65
2023/03/18 09:53:47;;;;;;;;;24.00;20.00;;;;;12.75;50.60;99005.84;5078824;27;45536;-67
2023/03/18 09:56:21;;;;;;;;;23.67;17.00;;;;;12.87;47.76;99001.75;5091449;27;45480;-64
2023/03/18 09:58:58;;;;;;;;;26.33;20.33;;;;;13.00;49.00;99010.75;5082465;27;45493;-64
2023/03/18 10:01:26;;;;;;;;;18.67;16.67;;;;;13.10;46.07;99006.69;5088403;27;46875;-64
2023/03/18 10:03:59;;;;;;;;;25.33;23.67;;;;;13.18;45.67;99015.13;5091704;27;45550;-64
2023/03/18 10:06:26;;;;;;;;;24.33;18.33;;;;;13.22;47.62;98990.22;5090667;27;45513;-64
2023/03/18 10:09:12;;;;;;;;;25.00;22.33;;;;;13.30;44.70;98992.44;5090707;27;45548;-64
2023/03/18 10:11:41;;;;;;;;;24.33;19.00;;;;;13.39;43.12;98999.91;5092322;27;46219;-64
2023/03/18 10:14:25;;;;;;;;;19.33;19.33;;;;;13.49;43.71;99000.25;5082593;27;45465;-64
2023/03/18 10:16:57;;;;;;;;;20.75;16.00;;;;;13.52;43.40;98986.84;5068115;27;45401;-64
2023/03/18 10:19:23;;;;;;;;;18.00;15.00;;;;;13.57;43.20;98985.66;5089853;27;45602;-64
2023/03/18 10:21:59;;;;;;;;;20.00;15.50;;;;;13.67;44.11;98986.03;5092545;27;45423;-64
2023/03/18 10:24:44;;;;;;;;;19.33;17.33;;;;;13.79;43.08;98988.00;5085218;27;45463;-65
2023/03/18 10:27:18;;;;;;;;;24.25;19.25;;;;;13.87;43.81;98988.44;5087517;27;45467;-66
2023/03/18 10:29:58;;;;;;;;;30.33;21.33;;;;;13.94;41.42;98988.94;5088956;27;45542;-65
2023/03/18 10:32:29;;;;;;;;;27.75;24.00;;;;;14.04;43.69;98984.84;5093497;27;46699;-65
2023/03/18 10:35:17;;;;;;;;;22.50;21.25;;;;;14.15;42.68;98981.56;5090991;27;45550;-69
2023/03/18 10:37:52;;;;;;;;;22.75;19.00;;;;;14.25;42.33;99001.31;5067324;27;45344;-69
2023/03/18 10:40:19;;;;;;;;;24.33;21.00;;;;;14.32;42.31;98990.28;5092814;27;45289;-68
2023/03/18 10:42:49;;;;;;;;;24.50;19.75;;;;;14.40;42.24;98987.22;5092521;27;46531;-68
2023/03/18 10:45:24;;;;;;;;;21.75;20.75;;;;;14.48;42.05;98992.06;5074041;27;45536;-69
2023/03/18 10:48:25;;;;;;;;;20.25;17.00;;;;;14.50;41.01;98982.22;5092714;27;45689;-69
2023/03/18 10:51:12;;;;;;;;;20.75;15.00;;;;;14.54;41.30;98997.03;5050512;27;45400;-69
2023/03/18 10:54:02;;;;;;;;;22.25;18.75;;;;;14.52;41.56;98973.25;5080117;27;45634;-71
2023/03/18 10:56:28;;;;;;;;;18.00;17.00;;;;;14.48;40.88;98987.63;5078628;27;45466;-72
2023/03/18 10:58:55;;;;;;;;;28.00;25.33;;;;;14.50;40.95;98977.78;5087372;27;45622;-71
2023/03/18 11:01:24;;;;;;;;;23.50;21.00;;;;;14.51;42.04;98968.03;5090541;27;45618;-73
2023/03/18 11:03:49;;;;;;;;;24.00;24.00;;;;;14.50;40.86;99008.75;5090708;27;46290;-73
2023/03/18 11:06:24;;;;;;;;;15.50;12.25;;;;;14.49;41.48;98970.75;5088696;27;45375;-73
2023/03/18 11:08:59;;;;;;;;;21.25;18.25;;;;;14.47;41.54;99006.28;5071553;27;45487;-74
2023/03/18 11:11:33;;;;;;;;;24.50;20.25;;;;;14.43;41.80;98980.88;5089397;27;45449;-72
2023/03/18 11:14:01;;;;;;;;;26.67;22.33;;;;;14.41;40.95;98982.78;5091106;27;45432;-74
2023/03/18 11:16:38;;;;;;;;;25.50;20.50;;;;;14.41;41.63;98988.91;5077024;27;45654;-74
2023/03/18 11:19:38;;;;;;;;;24.00;19.50;;;;;14.43;42.00;98975.56;5092492;27;45391;-74
2023/03/18 11:22:06;;;;;;;;;20.25;18.75;;;;;14.52;43.18;98965.28;5091799;27;45537;-74
2023/03/18 11:24:35;;;;;;;;;12.50;12.50;;;;;14.60;41.17;98986.91;5083950;27;46680;-74
2023/03/18 11:27:01;;;;;;;;;25.00;19.75;;;;;14.66;42.36;98967.97;5092984;27;45459;-74
2023/03/18 11:29:32;;;;;;;;;21.75;19.25;;;;;14.77;40.43;98977.94;5088070;27;45467;-74
2023/03/18 11:32:00;;;;;;;;;18.75;14.00;;;;;14.87;41.80;98965.00;5092403;27;45430;-74
2023/03/18 11:34:28;;;;;;;;;22.00;19.00;;;;;14.94;42.51;98964.50;5084408;27;46439;-75
2023/03/18 11:37:00;;;;;;;;;28.25;22.75;;;;;14.97;41.26;98964.34;5092358;27;45501;-74